Time;durP1;ratioP1;P1;durP2;ratioP2;P2;SDS_P1;SDS_P2;PMS_P1;PMS_P2;Temp;Humidity;BMP_temperature;BMP_pressure;BME280_temperature;BME280_humidity;BME280_pressure;Samples;Min_cycle;Max_cycle;Signal;HPM_P1;HPM_P2
2021/08/16 00:02:08;;;;;;;8.73;4.28;;;27.70;96.70;;;;;;5017645;28;20100;-74
2021/08/16 00:04:38;;;;;;;7.47;4.18;;;27.90;96.70;;;;;;5020253;28;20049;-76
2021/08/16 00:07:07;;;;;;;7.88;4.60;;;28.00;96.70;;;;;;5021537;28;20820;-75
2021/08/16 00:09:36;;;;;;;6.43;4.20;;;28.00;96.70;;;;;;5021266;28;20539;-75
2021/08/16 00:12:05;;;;;;;7.35;4.55;;;28.10;96.70;;;;;;5006308;28;20045;-75
2021/08/16 00:14:55;;;;;;;8.10;4.63;;;28.00;96.70;;;;;;5001938;28;20128;-75
2021/08/16 00:17:24;;;;;;;8.40;4.07;;;27.90;96.70;;;;;;5019440;28;20049;-76
2021/08/16 00:20:15;;;;;;;6.10;3.75;;;27.90;96.70;;;;;;5016074;28;20427;-75
2021/08/16 00:22:43;;;;;;;4.50;3.65;;;27.90;96.70;;;;;;5008945;28;20057;-75
2021/08/16 00:25:12;;;;;;;5.72;3.38;;;27.90;96.70;;;;;;5015664;28;20042;-75
2021/08/16 00:27:42;;;;;;;6.57;3.88;;;27.90;96.70;;;;;;5019647;28;20043;-75
2021/08/16 00:30:12;;;;;;;7.70;4.00;;;27.80;96.70;;;;;;5022919;28;20034;-75
2021/08/16 00:32:40;;;;;;;7.55;4.18;;;27.90;96.70;;;;;;5018932;28;20118;-75
2021/08/16 00:35:09;;;;;;;8.00;4.18;;;27.80;96.70;;;;;;5021989;28;20057;-75
2021/08/16 00:37:39;;;;;;;7.93;4.13;;;27.70;96.70;;;;;;5022578;28;20512;-75
2021/08/16 00:40:08;;;;;;;5.65;4.57;;;27.70;96.70;;;;;;5022937;28;20061;-75
2021/08/16 00:42:38;;;;;;;8.50;4.15;;;27.70;96.70;;;;;;5019627;28;20107;-75
2021/08/16 00:45:08;;;;;;;5.68;4.00;;;27.70;96.70;;;;;;5017739;28;20083;-75
2021/08/16 00:47:41;;;;;;;5.35;3.78;;;27.70;96.70;;;;;;5018160;28;20037;-75
2021/08/16 00:50:12;;;;;;;7.70;3.90;;;27.60;96.70;;;;;;5016045;28;20053;-75
2021/08/16 00:52:43;;;;;;;8.38;3.90;;;27.60;96.70;;;;;;5020086;28;20088;-75
2021/08/16 00:55:13;;;;;;;7.32;3.80;;;27.70;96.70;;;;;;5016442;28;20058;-75
2021/08/16 00:57:42;;;;;;;5.10;3.40;;;27.70;96.70;;;;;;5019749;28;20145;-75
2021/08/16 01:00:11;;;;;;;7.65;4.25;;;27.60;96.70;;;;;;5017381;28;20519;-75
2021/08/16 01:02:41;;;;;;;9.15;3.83;;;27.60;96.70;;;;;;5022760;28;20046;-75
2021/08/16 01:05:12;;;;;;;5.47;3.35;;;27.50;96.70;;;;;;5025277;28;20096;-75
2021/08/16 01:07:44;;;;;;;6.60;3.72;;;27.40;96.70;;;;;;5022948;28;20052;-75
2021/08/16 01:10:14;;;;;;;7.80;3.70;;;27.50;96.70;;;;;;5025232;28;20045;-75
2021/08/16 01:12:42;;;;;;;6.97;3.72;;;27.40;96.70;;;;;;5024915;28;20045;-75
2021/08/16 01:15:13;;;;;;;5.25;3.25;;;27.50;96.70;;;;;;5026981;28;20050;-75
2021/08/16 01:17:42;;;;;;;6.57;3.83;;;27.40;96.70;;;;;;5024398;28;20763;-75
2021/08/16 01:20:19;;;;;;;5.20;3.22;;;27.40;96.70;;;;;;4999407;28;21163;-75
2021/08/16 01:22:49;;;;;;;6.10;3.70;;;27.20;96.70;;;;;;5002997;28;20058;-76
2021/08/16 01:25:18;;;;;;;6.43;3.75;;;27.30;96.70;;;;;;5005021;28;20053;-75
2021/08/16 01:27:47;;;;;;;4.82;3.35;;;27.30;96.70;;;;;;5005188;28;20041;-75
2021/08/16 01:30:18;;;;;;;6.18;3.75;;;27.20;96.70;;;;;;5005408;28;20464;-75
2021/08/16 01:32:46;;;;;;;5.47;3.85;;;27.10;96.70;;;;;;5002280;28;20605;-75
2021/08/16 01:35:24;;;;;;;5.57;3.63;;;27.00;96.70;;;;;;5004765;28;20046;-75
2021/08/16 01:37:52;;;;;;;7.13;3.70;;;27.00;96.70;;;;;;5001032;28;20046;-75
2021/08/16 01:40:20;;;;;;;5.65;4.00;;;27.00;96.70;;;;;;4998987;28;20038;-75
2021/08/16 01:42:50;;;;;;;8.98;4.20;;;27.00;96.70;;;;;;5004120;28;20046;-76
2021/08/16 01:45:18;;;;;;;6.68;4.28;;;27.10;96.70;;;;;;4998508;28;20037;-75
2021/08/16 01:47:46;;;;;;;5.55;3.78;;;27.20;96.70;;;;;;5005721;28;20065;-75
2021/08/16 01:50:16;;;;;;;6.53;3.90;;;27.10;96.70;;;;;;4998035;28;20543;-75
2021/08/16 01:52:45;;;;;;;9.68;4.35;;;27.10;96.70;;;;;;5006409;28;20133;-75
2021/08/16 01:58:55;;;;;;;7.15;3.53;;;27.10;96.70;;;;;;5004700;28;20041;-75
2021/08/16 02:01:24;;;;;;;8.27;3.45;;;27.10;96.70;;;;;;5005654;28;20296;-75
2021/08/16 02:03:53;;;;;;;6.28;3.88;;;27.00;96.70;;;;;;5018935;28;20041;-75
2021/08/16 02:07:04;;;;;;;10.45;4.10;;;26.80;96.70;;;;;;5001964;28;20046;-75
2021/08/16 02:09:32;;;;;;;6.32;3.63;;;26.90;96.70;;;;;;4986441;28;20056;-75
2021/08/16 02:12:18;;;;;;;8.65;3.90;;;26.80;96.70;;;;;;5006031;28;20053;-75
2021/08/16 02:14:48;;;;;;;9.23;4.47;;;26.80;96.70;;;;;;5004735;28;20053;-75
2021/08/16 02:17:17;;;;;;;8.80;3.80;;;26.80;96.70;;;;;;5003718;28;20042;-75
2021/08/16 02:19:48;;;;;;;13.30;4.40;;;27.00;96.70;;;;;;5003955;28;20049;-75
2021/08/16 02:22:17;;;;;;;12.85;4.93;;;27.10;96.70;;;;;;5025278;28;20048;-75
2021/08/16 02:24:45;;;;;;;8.18;3.80;;;27.00;96.70;;;;;;5022516;28;20443;-76
2021/08/16 02:27:14;;;;;;;8.23;3.83;;;26.90;96.70;;;;;;5021385;28;20127;-75
2021/08/16 02:29:44;;;;;;;6.53;3.53;;;26.90;96.70;;;;;;5021933;28;20519;-75
2021/08/16 02:32:16;;;;;;;8.65;3.72;;;26.90;96.70;;;;;;5024119;28;20503;-75
2021/08/16 02:34:45;;;;;;;8.38;3.72;;;27.00;96.70;;;;;;5022846;28;20053;-75
2021/08/16 02:37:15;;;;;;;5.35;3.65;;;26.90;96.70;;;;;;5020078;28;20462;-75
2021/08/16 02:39:44;;;;;;;9.23;3.92;;;26.80;96.70;;;;;;5020496;28;20038;-75
2021/08/16 02:42:12;;;;;;;7.75;4.30;;;26.90;96.70;;;;;;5023678;28;20475;-75
2021/08/16 02:44:42;;;;;;;7.95;3.88;;;27.00;96.70;;;;;;5019124;28;20564;-75
2021/08/16 02:47:12;;;;;;;7.18;4.20;;;26.90;96.70;;;;;;5023419;28;20030;-75
2021/08/16 02:49:42;;;;;;;9.90;3.78;;;26.90;96.70;;;;;;5008106;28;20045;-75
2021/08/16 02:52:10;;;;;;;7.60;4.15;;;26.90;96.70;;;;;;5023619;28;20115;-75
2021/08/16 02:54:38;;;;;;;5.80;3.90;;;27.00;96.70;;;;;;5020168;28;20119;-75
2021/08/16 02:57:06;;;;;;;11.15;3.80;;;27.00;96.70;;;;;;5020788;28;20057;-75
2021/08/16 02:59:34;;;;;;;7.25;3.85;;;26.90;96.70;;;;;;5006168;28;20058;-75
2021/08/16 03:02:02;;;;;;;6.13;3.60;;;26.90;96.70;;;;;;5022617;28;20041;-75
2021/08/16 03:04:30;;;;;;;5.63;3.65;;;27.00;96.70;;;;;;5022454;28;20033;-75
2021/08/16 03:07:00;;;;;;;6.10;3.45;;;27.00;96.70;;;;;;5023648;28;20050;-76
2021/08/16 03:09:28;;;;;;;5.80;3.30;;;27.00;96.70;;;;;;5022993;28;20037;-75
2021/08/16 03:11:57;;;;;;;8.02;3.42;;;27.00;96.70;;;;;;5020767;28;20412;-75
2021/08/16 03:14:25;;;;;;;5.43;3.47;;;26.90;96.70;;;;;;5020641;28;20053;-75
2021/08/16 03:20:40;;;;;;;5.65;3.42;;;26.90;96.70;;;;;;5000598;28;20104;-75
2021/08/16 03:23:10;;;;;;;7.95;3.63;;;26.80;96.70;;;;;;5002096;28;20121;-75
2021/08/16 03:25:38;;;;;;;4.38;3.33;;;26.80;96.70;;;;;;5016688;28;20045;-74
2021/08/16 03:28:06;;;;;;;7.05;3.60;;;26.70;96.70;;;;;;5001651;28;20125;-75
2021/08/16 03:30:35;;;;;;;7.45;3.47;;;26.60;96.70;;;;;;5002538;28;20038;-75
2021/08/16 03:33:03;;;;;;;6.00;3.55;;;26.50;96.70;;;;;;5003256;28;20561;-75
2021/08/16 03:35:31;;;;;;;7.88;3.40;;;26.40;96.70;;;;;;5001206;28;20057;-75
2021/08/16 03:38:00;;;;;;;4.72;3.17;;;26.50;96.70;;;;;;5003312;28;20076;-75
2021/08/16 03:40:54;;;;;;;10.23;3.72;;;26.50;96.70;;;;;;5017312;28;20034;-75
2021/08/16 03:43:22;;;;;;;6.55;3.63;;;26.40;96.70;;;;;;5003808;28;20496;-75
2021/08/16 03:46:10;;;;;;;8.90;3.75;;;26.30;96.70;;;;;;5000271;28;20332;-75
2021/08/16 03:48:38;;;;;;;6.85;3.38;;;26.50;96.70;;;;;;5003940;28;20638;-75
2021/08/16 03:51:06;;;;;;;6.13;3.38;;;26.60;96.70;;;;;;5017360;28;20052;-75
2021/08/16 03:53:34;;;;;;;8.95;3.83;;;26.60;96.70;;;;;;4998157;28;20312;-75
2021/08/16 03:56:06;;;;;;;10.48;4.00;;;26.50;96.70;;;;;;5014169;28;20148;-75
2021/08/16 03:58:35;;;;;;;8.35;3.72;;;26.50;96.70;;;;;;4998279;28;20512;-75
2021/08/16 04:01:04;;;;;;;6.45;3.45;;;26.60;96.70;;;;;;4984237;28;20618;-75
2021/08/16 04:04:25;;;;;;;7.47;3.65;;;26.40;96.70;;;;;;5018096;28;20034;-75
2021/08/16 04:06:54;;;;;;;6.28;3.67;;;26.30;96.70;;;;;;5017045;28;20037;-75
2021/08/16 04:09:22;;;;;;;9.18;4.10;;;26.30;96.70;;;;;;4999927;28;20119;-75
2021/08/16 04:11:52;;;;;;;9.50;3.92;;;26.50;96.70;;;;;;4995460;28;20218;-75
2021/08/16 04:14:21;;;;;;;7.47;4.00;;;26.30;96.70;;;;;;5017527;28;20547;-75
2021/08/16 04:16:50;;;;;;;4.78;3.58;;;26.20;96.70;;;;;;5000022;28;20038;-75
2021/08/16 04:19:19;;;;;;;6.25;3.83;;;26.00;96.70;;;;;;5000050;28;20089;-75
2021/08/16 04:21:49;;;;;;;5.22;3.38;;;26.00;96.70;;;;;;5005053;28;20038;-75
2021/08/16 04:24:17;;;;;;;6.07;3.90;;;26.10;96.70;;;;;;5018929;28;20037;-75
2021/08/16 04:26:46;;;;;;;4.85;3.60;;;26.00;96.70;;;;;;5022284;28;20041;-75
2021/08/16 04:29:16;;;;;;;5.80;3.42;;;26.10;96.70;;;;;;5015879;28;20038;-75
2021/08/16 04:31:44;;;;;;;6.65;3.72;;;26.10;96.70;;;;;;5020558;28;20050;-74
2021/08/16 04:34:13;;;;;;;8.35;3.90;;;26.00;96.70;;;;;;5020583;28;20140;-75
2021/08/16 04:36:41;;;;;;;10.57;4.20;;;26.00;96.70;;;;;;5022572;28;20052;-75
2021/08/16 04:39:10;;;;;;;8.85;4.53;;;26.00;96.70;;;;;;5024221;28;20068;-75
2021/08/16 04:41:38;;;;;;;8.82;4.85;;;26.00;96.70;;;;;;5024782;28;20407;-75
2021/08/16 04:44:07;;;;;;;7.97;3.92;;;25.90;96.70;;;;;;5024317;28;20479;-75
2021/08/16 04:46:37;;;;;;;8.27;3.92;;;25.90;96.70;;;;;;5020828;28;20432;-75
2021/08/16 04:49:05;;;;;;;6.25;3.97;;;25.90;96.70;;;;;;5022030;28;20160;-75
2021/08/16 04:51:34;;;;;;;9.82;4.68;;;26.00;96.70;;;;;;5020193;28;20511;-75
2021/08/16 04:54:02;;;;;;;7.90;4.40;;;26.20;96.70;;;;;;5036550;28;20328;-75
2021/08/16 04:56:30;;;;;;;7.22;4.25;;;26.00;96.70;;;;;;5019685;28;20748;-75
2021/08/16 04:59:00;;;;;;;6.28;4.15;;;26.10;96.70;;;;;;5041594;28;20132;-74
2021/08/16 05:01:29;;;;;;;9.23;4.47;;;26.10;96.70;;;;;;5024636;28;20503;-75
2021/08/16 05:03:59;;;;;;;7.63;4.18;;;26.10;96.70;;;;;;5027268;28;20052;-75
2021/08/16 05:06:32;;;;;;;9.68;4.68;;;26.10;96.70;;;;;;5025226;28;20087;-75
2021/08/16 05:09:02;;;;;;;7.70;4.60;;;26.40;96.70;;;;;;5025666;28;20045;-75
2021/08/16 05:11:31;;;;;;;7.72;5.15;;;26.50;96.70;;;;;;5023926;28;20511;-75
2021/08/16 05:13:59;;;;;;;7.90;4.93;;;26.30;96.70;;;;;;5024532;28;20061;-75
2021/08/16 05:16:29;;;;;;;9.20;5.00;;;26.00;96.70;;;;;;5023127;28;20099;-75
2021/08/16 05:18:59;;;;;;;8.57;4.90;;;25.80;96.70;;;;;;5023986;28;20053;-75
2021/08/16 05:21:31;;;;;;;10.20;5.18;;;25.80;96.70;;;;;;5024876;28;20145;-75
2021/08/16 05:23:59;;;;;;;7.85;5.07;;;26.00;96.70;;;;;;5010038;28;20041;-75
2021/08/16 05:26:28;;;;;;;10.65;4.85;;;26.10;96.70;;;;;;5005972;28;20538;-75
2021/08/16 05:28:59;;;;;;;7.38;4.35;;;26.10;96.70;;;;;;5025219;28;20041;-75
2021/08/16 05:31:27;;;;;;;7.65;4.15;;;26.30;96.70;;;;;;5022575;28;20136;-75
2021/08/16 05:33:56;;;;;;;8.30;4.43;;;26.20;96.70;;;;;;5025755;28;20103;-74
2021/08/16 05:36:26;;;;;;;5.53;4.22;;;26.10;96.70;;;;;;5023834;28;20666;-75
2021/08/16 05:38:54;;;;;;;11.10;4.07;;;26.20;96.70;;;;;;5026873;28;20057;-75
2021/08/16 05:41:23;;;;;;;6.60;4.10;;;26.40;96.70;;;;;;5027235;28;20050;-75
2021/08/16 05:43:51;;;;;;;8.50;4.60;;;26.40;96.70;;;;;;5007778;28;20060;-75
2021/08/16 05:46:20;;;;;;;17.10;5.40;;;26.20;96.70;;;;;;5018685;28;20050;-75
2021/08/16 05:48:48;;;;;;;11.13;5.38;;;26.10;96.70;;;;;;5022029;28;20049;-75
2021/08/16 05:51:17;;;;;;;10.35;6.45;;;26.10;96.70;;;;;;5023583;28;20045;-75
2021/08/16 05:53:47;;;;;;;10.75;6.28;;;26.20;96.70;;;;;;5023519;28;20044;-76
2021/08/16 05:56:15;;;;;;;12.32;6.20;;;26.30;96.70;;;;;;5022319;28;20060;-75
2021/08/16 05:58:44;;;;;;;9.32;5.97;;;26.60;96.70;;;;;;5022910;28;20049;-75
2021/08/16 06:01:12;;;;;;;9.65;5.88;;;26.60;96.70;;;;;;5022619;28;20053;-75
2021/08/16 06:03:41;;;;;;;7.95;5.80;;;26.60;96.70;;;;;;5024369;28;20076;-75
2021/08/16 06:06:10;;;;;;;9.00;5.78;;;26.60;96.70;;;;;;5025322;28;20041;-75
2021/08/16 06:08:38;;;;;;;8.80;5.30;;;26.50;96.70;;;;;;5007143;28;20084;-76
2021/08/16 06:11:08;;;;;;;8.40;5.13;;;26.50;96.70;;;;;;5022892;28;20136;-75
2021/08/16 06:13:36;;;;;;;9.32;5.22;;;26.60;96.70;;;;;;5021233;28;20135;-75
2021/08/16 06:16:05;;;;;;;9.63;5.38;;;26.80;96.70;;;;;;5021906;28;20055;-75
2021/08/16 06:18:33;;;;;;;7.22;5.47;;;26.80;96.70;;;;;;5021592;28;20084;-75
2021/08/16 06:21:02;;;;;;;6.88;4.68;;;26.70;96.70;;;;;;5010218;28;20091;-75
2021/08/16 06:23:30;;;;;;;7.28;4.75;;;26.90;96.70;;;;;;5042084;28;20454;-75
2021/08/16 06:25:59;;;;;;;7.93;4.60;;;26.90;96.70;;;;;;5038933;28;20409;-75
2021/08/16 06:28:29;;;;;;;11.07;6.03;;;27.10;96.70;;;;;;5024285;28;20046;-75
2021/08/16 06:30:57;;;;;;;9.15;5.45;;;27.20;96.70;;;;;;5009376;28;20072;-75
2021/08/16 06:33:26;;;;;;;10.57;5.70;;;27.00;96.70;;;;;;5020908;28;20718;-75
2021/08/16 06:35:55;;;;;;;14.10;5.50;;;27.20;96.70;;;;;;5043709;28;20123;-75
2021/08/16 06:38:24;;;;;;;10.02;5.03;;;27.20;96.70;;;;;;5021293;28;20079;-75
2021/08/16 06:40:54;;;;;;;6.53;5.22;;;27.20;96.70;;;;;;5005192;28;20234;-75
2021/08/16 06:43:25;;;;;;;9.15;5.63;;;27.20;96.70;;;;;;5022322;28;20115;-75
2021/08/16 06:45:55;;;;;;;9.77;6.18;;;27.30;96.70;;;;;;5026274;28;20060;-75
2021/08/16 06:48:24;;;;;;;12.15;6.38;;;27.40;96.70;;;;;;5007928;28;20405;-75
2021/08/16 06:50:53;;;;;;;8.95;6.20;;;27.50;96.70;;;;;;5026115;28;21148;-75
2021/08/16 06:53:21;;;;;;;10.30;6.05;;;27.40;96.70;;;;;;5025672;28;20041;-75
2021/08/16 06:55:50;;;;;;;8.63;5.80;;;27.50;96.70;;;;;;5025453;28;20053;-75
2021/08/16 06:58:19;;;;;;;10.30;6.07;;;27.50;96.70;;;;;;5022742;28;20072;-75
2021/08/16 07:00:48;;;;;;;11.35;5.97;;;27.50;96.70;;;;;;5035992;28;20077;-75
2021/08/16 07:03:23;;;;;;;9.55;5.82;;;27.50;96.70;;;;;;5026026;28;20098;-75
2021/08/16 07:05:52;;;;;;;10.60;5.78;;;27.50;96.70;;;;;;5041683;28;20621;-75
2021/08/16 07:08:21;;;;;;;8.15;5.20;;;27.50;96.70;;;;;;5024954;28;20037;-75
2021/08/16 07:10:49;;;;;;;8.40;5.93;;;27.50;96.70;;;;;;5044591;28;20033;-75
2021/08/16 07:13:18;;;;;;;7.80;5.25;;;27.50;96.70;;;;;;5026462;28;20103;-75
2021/08/16 07:15:47;;;;;;;7.10;5.60;;;27.50;96.70;;;;;;5018195;28;20921;-75
2021/08/16 07:18:16;;;;;;;9.23;5.60;;;27.60;96.70;;;;;;5024084;28;20499;-74
2021/08/16 07:20:46;;;;;;;12.90;5.85;;;27.60;96.70;;;;;;5018169;28;20132;-75
2021/08/16 07:23:15;;;;;;;7.93;5.07;;;27.80;96.70;;;;;;5043156;28;20045;-75
2021/08/16 07:25:43;;;;;;;10.93;5.60;;;27.90;96.70;;;;;;5020889;28;20049;-75
2021/08/16 07:28:12;;;;;;;9.50;4.93;;;28.00;96.70;;;;;;5042525;28;20048;-75
2021/08/16 07:30:40;;;;;;;8.07;5.32;;;28.10;96.70;;;;;;5037611;28;20633;-75
2021/08/16 07:33:09;;;;;;;9.63;4.95;;;28.10;96.70;;;;;;5038876;28;20072;-75
2021/08/16 07:35:38;;;;;;;9.50;5.00;;;28.10;96.70;;;;;;5022206;28;20045;-75
2021/08/16 07:38:08;;;;;;;6.97;4.82;;;28.10;96.70;;;;;;5021970;28;20550;-75
2021/08/16 07:40:36;;;;;;;8.48;4.82;;;28.10;96.70;;;;;;5037470;28;20041;-75
2021/08/16 07:43:05;;;;;;;9.13;4.75;;;28.10;96.70;;;;;;5043683;28;20040;-75
2021/08/16 07:45:34;;;;;;;8.50;5.05;;;28.20;96.70;;;;;;5025236;28;20044;-75
2021/08/16 07:48:06;;;;;;;8.25;5.03;;;28.20;96.70;;;;;;5020939;28;20057;-75
2021/08/16 07:50:34;;;;;;;7.85;4.60;;;28.20;96.70;;;;;;5021064;28;20534;-75
2021/08/16 07:53:03;;;;;;;9.30;5.45;;;28.40;96.70;;;;;;5038685;28;20049;-75
2021/08/16 07:55:33;;;;;;;10.27;5.32;;;28.40;96.70;;;;;;5007438;28;20104;-75
2021/08/16 07:58:02;;;;;;;9.73;4.78;;;28.50;96.70;;;;;;5038243;28;20045;-75
2021/08/16 08:00:30;;;;;;;10.88;5.07;;;28.50;96.70;;;;;;5023950;28;20545;-75
2021/08/16 08:02:59;;;;;;;11.35;5.47;;;28.60;96.70;;;;;;5040353;28;20037;-75
2021/08/16 08:05:28;;;;;;;9.60;4.95;;;28.70;96.70;;;;;;5031865;28;20438;-75
2021/08/16 08:07:56;;;;;;;10.55;4.63;;;28.80;96.70;;;;;;5021169;28;20140;-75
2021/08/16 08:10:25;;;;;;;8.70;4.40;;;28.90;96.70;;;;;;5038307;28;20550;-75
2021/08/16 08:13:00;;;;;;;10.07;4.80;;;28.80;96.70;;;;;;5024467;28;20045;-76
2021/08/16 08:15:28;;;;;;;8.10;4.13;;;28.70;96.70;;;;;;5042896;28;20486;-75
2021/08/16 08:17:57;;;;;;;9.75;3.90;;;28.70;96.70;;;;;;5020220;28;20053;-75
2021/08/16 08:20:27;;;;;;;6.47;4.32;;;28.90;96.70;;;;;;5016806;28;20139;-75
2021/08/16 08:22:55;;;;;;;9.30;4.63;;;28.90;96.70;;;;;;5020122;28;20060;-75
2021/08/16 08:25:25;;;;;;;7.07;4.03;;;28.90;96.70;;;;;;5019537;28;20058;-75
2021/08/16 08:27:53;;;;;;;7.82;4.43;;;28.90;96.70;;;;;;5017809;28;20128;-75
2021/08/16 08:30:23;;;;;;;6.50;3.80;;;29.00;96.70;;;;;;5015213;28;20042;-76
2021/08/16 08:32:53;;;;;;;6.72;4.22;;;29.10;96.70;;;;;;5019606;28;20049;-75
2021/08/16 08:35:23;;;;;;;7.78;3.80;;;29.20;96.40;;;;;;5020249;28;20116;-75
2021/08/16 08:37:51;;;;;;;8.98;4.18;;;29.30;96.20;;;;;;5003539;28;20045;-75
2021/08/16 08:40:20;;;;;;;11.35;4.07;;;29.40;95.70;;;;;;5019646;28;20315;-75
2021/08/16 08:42:53;;;;;;;9.13;3.95;;;29.50;95.10;;;;;;5016854;28;20041;-75
2021/08/16 08:45:25;;;;;;;14.98;4.18;;;29.60;94.50;;;;;;5022530;28;20052;-75
2021/08/16 08:47:54;;;;;;;14.10;4.53;;;29.70;92.70;;;;;;5017618;28;20134;-75
2021/08/16 08:50:23;;;;;;;19.60;4.68;;;29.80;92.50;;;;;;5023082;28;20037;-76
2021/08/16 08:52:56;;;;;;;18.60;4.88;;;29.80;91.30;;;;;;5020789;28;20064;-75
2021/08/16 08:55:25;;;;;;;17.50;4.80;;;29.90;91.00;;;;;;5020590;28;20049;-75
2021/08/16 08:58:14;;;;;;;15.70;4.40;;;29.90;91.20;;;;;;5020930;28;20064;-76
2021/08/16 09:00:43;;;;;;;14.82;4.85;;;30.00;90.90;;;;;;5021635;28;20053;-76
2021/08/16 09:03:12;;;;;;;14.85;4.25;;;30.10;90.60;;;;;;5022210;28;20049;-76
2021/08/16 09:05:52;;;;;;;14.63;4.97;;;30.10;90.40;;;;;;5019711;28;20132;-76
2021/08/16 09:08:25;;;;;;;14.32;5.25;;;30.10;90.60;;;;;;5021761;28;20041;-76
2021/08/16 09:11:05;;;;;;;15.73;4.45;;;30.20;90.60;;;;;;5021055;28;20458;-76
2021/08/16 09:13:34;;;;;;;18.05;4.60;;;30.30;89.70;;;;;;5020402;28;20127;-76
2021/08/16 09:16:10;;;;;;;13.43;4.53;;;30.40;90.00;;;;;;5022083;28;20036;-76
2021/08/16 09:18:39;;;;;;;17.85;5.22;;;30.50;89.20;;;;;;5025719;28;20060;-75
2021/08/16 09:21:08;;;;;;;17.65;5.35;;;30.60;89.30;;;;;;5041068;28;20044;-76
2021/08/16 09:23:41;;;;;;;20.98;4.80;;;30.70;89.30;;;;;;5021765;28;20049;-76
2021/08/16 09:26:10;;;;;;;32.15;5.53;;;30.70;87.80;;;;;;5043592;28;20041;-76
2021/08/16 09:28:38;;;;;;;23.10;5.30;;;30.80;86.50;;;;;;5029289;28;20070;-76
2021/08/16 09:31:13;;;;;;;27.25;5.57;;;30.80;86.10;;;;;;5046986;28;20087;-75
2021/08/16 09:33:53;;;;;;;23.70;5.13;;;30.90;85.10;;;;;;5046526;28;20049;-75
2021/08/16 09:36:33;;;;;;;22.73;5.40;;;30.90;86.50;;;;;;5025302;28;20048;-76
2021/08/16 09:39:02;;;;;;;19.33;4.80;;;31.00;86.50;;;;;;5040944;28;20052;-75
2021/08/16 09:41:30;;;;;;;22.67;5.50;;;31.00;84.40;;;;;;5024567;28;20047;-75
2021/08/16 09:44:09;;;;;;;23.13;5.75;;;31.10;84.60;;;;;;5021372;28;20057;-75
2021/08/16 09:46:41;;;;;;;26.98;5.57;;;31.10;83.70;;;;;;5027284;28;20037;-75
2021/08/16 09:49:10;;;;;;;28.42;6.22;;;31.20;83.50;;;;;;5028351;28;20049;-76
2021/08/16 09:51:38;;;;;;;41.97;7.50;;;31.40;81.50;;;;;;5027424;28;20056;-76
2021/08/16 09:54:07;;;;;;;23.80;5.95;;;31.50;81.80;;;;;;5040747;28;20055;-76
2021/08/16 09:56:36;;;;;;;23.65;5.72;;;31.50;80.30;;;;;;5019170;28;20136;-75
2021/08/16 09:59:05;;;;;;;22.60;6.30;;;31.50;80.80;;;;;;5018904;28;20396;-76
2021/08/16 10:01:35;;;;;;;20.13;6.05;;;31.50;80.70;;;;;;5024143;28;20037;-76
2021/08/16 10:04:05;;;;;;;22.33;4.95;;;31.60;80.50;;;;;;5025063;28;20388;-76
2021/08/16 10:06:34;;;;;;;19.20;4.85;;;31.70;80.80;;;;;;5024863;28;20049;-76
2021/08/16 10:09:05;;;;;;;18.08;5.03;;;31.80;81.20;;;;;;5024441;28;20041;-75
2021/08/16 10:11:37;;;;;;;20.50;5.65;;;31.90;81.90;;;;;;5026971;28;20043;-75
2021/08/16 10:14:06;;;;;;;23.58;5.60;;;32.00;81.40;;;;;;5044044;28;20398;-76
2021/08/16 10:16:39;;;;;;;27.42;5.72;;;32.00;82.10;;;;;;5026343;28;20632;-75
2021/08/16 10:19:13;;;;;;;23.92;6.28;;;32.10;82.80;;;;;;5024414;28;20368;-75
2021/08/16 10:21:43;;;;;;;20.67;5.68;;;32.10;82.50;;;;;;5021024;28;20060;-76
2021/08/16 10:24:18;;;;;;;18.30;5.00;;;32.10;82.20;;;;;;5040236;28;20033;-76
2021/08/16 10:27:05;;;;;;;19.38;4.90;;;32.20;82.50;;;;;;5026425;28;20521;-76
2021/08/16 10:29:34;;;;;;;30.63;5.65;;;32.40;82.20;;;;;;5022023;28;20049;-76
2021/08/16 10:32:04;;;;;;;38.13;6.13;;;32.50;81.80;;;;;;5022125;28;20126;-76
2021/08/16 10:34:36;;;;;;;23.63;5.43;;;32.50;81.50;;;;;;5026371;28;20069;-76
2021/08/16 10:37:11;;;;;;;17.45;4.80;;;32.60;81.40;;;;;;5044276;28;20068;-76
2021/08/16 10:39:41;;;;;;;23.98;5.13;;;32.70;81.40;;;;;;5042763;28;20045;-76
2021/08/16 10:42:11;;;;;;;18.38;4.82;;;32.70;81.20;;;;;;5011116;28;20649;-76
2021/08/16 10:44:45;;;;;;;19.67;5.00;;;32.80;80.20;;;;;;5038794;28;20045;-75
2021/08/16 10:47:25;;;;;;;21.55;5.72;;;32.80;80.20;;;;;;5025342;28;20809;-75
2021/08/16 10:50:05;;;;;;;17.83;4.45;;;33.00;80.30;;;;;;5028393;28;20041;-76
2021/08/16 10:52:36;;;;;;;18.67;6.00;;;33.20;80.20;;;;;;5024629;28;20526;-76
2021/08/16 10:55:09;;;;;;;21.30;5.40;;;33.10;79.40;;;;;;5043316;28;20049;-76
2021/08/16 10:57:37;;;;;;;20.27;4.80;;;33.20;79.90;;;;;;5025696;28;20048;-76
2021/08/16 11:00:10;;;;;;;23.38;4.25;;;33.30;79.90;;;;;;5032635;28;20665;-76
2021/08/16 11:02:41;;;;;;;23.30;5.53;;;33.40;79.20;;;;;;5037159;28;20045;-75
2021/08/16 11:05:14;;;;;;;19.58;5.13;;;33.40;79.70;;;;;;5035345;28;20045;-76
2021/08/16 11:07:42;;;;;;;19.02;5.15;;;33.50;78.10;;;;;;5020599;28;20132;-76
2021/08/16 11:10:12;;;;;;;19.42;4.82;;;33.60;78.90;;;;;;5025901;28;20052;-76
2021/08/16 11:12:44;;;;;;;22.17;5.20;;;33.80;78.50;;;;;;5043666;28;20422;-76
2021/08/16 11:15:19;;;;;;;21.48;4.97;;;33.70;78.50;;;;;;5008766;28;20502;-76
2021/08/16 11:17:47;;;;;;;21.85;4.97;;;33.80;78.90;;;;;;5027514;28;20040;-76
2021/08/16 11:20:19;;;;;;;21.75;5.03;;;33.90;78.30;;;;;;5039528;28;20122;-76
2021/08/16 11:22:52;;;;;;;18.40;4.82;;;33.90;78.30;;;;;;5025029;28;20072;-76
2021/08/16 11:25:21;;;;;;;21.85;5.32;;;34.10;78.80;;;;;;5044367;28;20032;-75
2021/08/16 11:27:49;;;;;;;17.15;5.50;;;34.10;78.50;;;;;;5030399;28;20048;-76
2021/08/16 11:30:18;;;;;;;17.60;4.97;;;34.20;78.70;;;;;;5023321;28;20087;-76
2021/08/16 11:32:52;;;;;;;21.98;5.18;;;34.30;78.10;;;;;;5031704;28;20029;-76
2021/08/16 11:35:25;;;;;;;18.13;5.13;;;34.40;78.00;;;;;;5022854;28;20065;-76
2021/08/16 11:37:53;;;;;;;16.58;4.78;;;34.60;78.50;;;;;;5032942;28;20041;-76
2021/08/16 11:40:22;;;;;;;15.88;5.00;;;34.70;78.50;;;;;;5024323;28;20489;-76
2021/08/16 11:43:04;;;;;;;13.65;5.20;;;34.70;78.80;;;;;;5040184;28;20080;-75
2021/08/16 11:45:37;;;;;;;13.13;4.30;;;34.70;79.30;;;;;;5023476;28;20029;-76
2021/08/16 11:48:06;;;;;;;14.90;4.95;;;34.80;79.10;;;;;;5025037;28;20045;-76
2021/08/16 11:50:38;;;;;;;17.48;4.45;;;34.80;78.40;;;;;;5035057;28;20043;-76
2021/08/16 11:53:06;;;;;;;16.15;4.28;;;34.70;78.80;;;;;;5038267;28;20126;-75
2021/08/16 11:55:34;;;;;;;14.98;4.32;;;34.80;78.40;;;;;;5036596;28;20103;-76
2021/08/16 11:58:03;;;;;;;18.75;4.80;;;34.70;78.20;;;;;;5022701;28;20033;-76
2021/08/16 12:00:36;;;;;;;19.88;5.28;;;34.90;78.10;;;;;;5005283;28;20549;-76
2021/08/16 12:03:05;;;;;;;15.77;4.63;;;35.00;78.20;;;;;;5034798;28;20045;-75
2021/08/16 12:05:36;;;;;;;15.75;4.85;;;35.10;78.60;;;;;;5040928;28;20402;-76
2021/08/16 12:08:06;;;;;;;15.85;4.15;;;35.10;78.30;;;;;;5042059;28;20061;-76
2021/08/16 12:10:43;;;;;;;16.98;4.47;;;35.10;78.50;;;;;;5043715;28;20030;-76
2021/08/16 12:13:11;;;;;;;16.95;5.07;;;35.20;78.90;;;;;;5048900;28;20061;-76
2021/08/16 12:15:40;;;;;;;16.42;5.03;;;35.30;78.50;;;;;;5040640;28;20495;-76
2021/08/16 12:18:09;;;;;;;13.10;4.35;;;35.20;79.10;;;;;;5024818;28;20441;-76
2021/08/16 12:20:43;;;;;;;17.83;4.90;;;35.10;79.20;;;;;;5033580;28;20163;-76
2021/08/16 12:23:23;;;;;;;15.50;5.25;;;35.20;79.20;;;;;;5040343;28;20526;-76
2021/08/16 12:25:52;;;;;;;14.15;4.18;;;35.40;78.80;;;;;;5028342;28;20304;-76
2021/08/16 12:28:33;;;;;;;16.17;4.72;;;35.40;78.60;;;;;;5022860;28;20056;-76
2021/08/16 12:31:15;;;;;;;16.15;5.18;;;35.60;79.00;;;;;;5046001;28;20371;-76
2021/08/16 12:33:58;;;;;;;26.63;5.10;;;35.50;78.70;;;;;;5022268;28;20049;-76
2021/08/16 12:36:31;;;;;;;15.05;4.22;;;35.60;79.30;;;;;;5005280;28;20279;-76
2021/08/16 12:39:07;;;;;;;21.92;4.85;;;35.70;79.00;;;;;;5018342;28;20426;-75
2021/08/16 12:41:52;;;;;;;23.23;5.70;;;35.80;79.60;;;;;;5043108;28;20103;-76
2021/08/16 12:44:22;;;;;;;17.98;5.60;;;35.80;79.90;;;;;;5035898;28;20124;-76
2021/08/16 12:46:59;;;;;;;23.02;5.07;;;35.90;80.00;;;;;;5040328;28;20052;-75
2021/08/16 12:49:29;;;;;;;16.15;5.25;;;35.70;79.80;;;;;;5027941;28;20120;-76
2021/08/16 12:52:00;;;;;;;20.55;5.30;;;35.60;80.30;;;;;;5043017;28;20041;-76
2021/08/16 12:54:28;;;;;;;15.57;5.45;;;35.40;80.40;;;;;;5019168;28;20384;-76
2021/08/16 12:56:57;;;;;;;23.00;5.40;;;35.30;80.20;;;;;;5033506;28;20044;-75
2021/08/16 12:59:26;;;;;;;25.73;5.72;;;35.20;80.50;;;;;;5039273;28;20069;-76
2021/08/16 13:01:55;;;;;;;16.50;4.90;;;35.40;79.90;;;;;;5046900;28;20045;-76
2021/08/16 13:04:24;;;;;;;19.88;5.32;;;35.40;80.20;;;;;;5030437;28;20041;-76
2021/08/16 13:06:52;;;;;;;19.25;5.28;;;35.30;80.90;;;;;;5029042;28;20041;-76
2021/08/16 13:09:22;;;;;;;13.65;4.82;;;35.20;80.30;;;;;;5050987;28;20048;-76